sensor_id;sensor_type;location;lat;lon;timestamp;temperature;humidity
23087;DHT22;11712;51.134;4.156;2023-04-08T00:00:55;9.30;99.90
23087;DHT22;11712;51.134;4.156;2023-04-08T00:03:21;9.30;99.90
23087;DHT22;11712;51.134;4.156;2023-04-08T00:05:47;9.10;99.90
23087;DHT22;11712;51.134;4.156;2023-04-08T00:08:12;9.10;99.90
23087;DHT22;11712;51.134;4.156;2023-04-08T00:10:38;9.10;99.90
23087;DHT22;11712;51.134;4.156;2023-04-08T00:13:03;9.10;99.90
23087;DHT22;11712;51.134;4.156;2023-04-08T00:15:29;9.00;99.90
23087;DHT22;11712;51.134;4.156;2023-04-08T00:17:55;9.00;99.90
23087;DHT22;11712;51.134;4.156;2023-04-08T00:20:21;9.10;99.90
23087;DHT22;11712;51.134;4.156;2023-04-08T00:22:47;9.10;99.90
23087;DHT22;11712;51.134;4.156;2023-04-08T00:25:13;9.00;99.90
23087;DHT22;11712;51.134;4.156;2023-04-08T00:27:38;9.00;99.90
23087;DHT22;11712;51.134;4.156;2023-04-08T00:30:04;9.00;99.90
23087;DHT22;11712;51.134;4.156;2023-04-08T00:32:30;9.00;99.90
23087;DHT22;11712;51.134;4.156;2023-04-08T00:34:55;9.00;99.90
23087;DHT22;11712;51.134;4.156;2023-04-08T00:37:21;9.00;99.90
23087;DHT22;11712;51.134;4.156;2023-04-08T00:39:47;8.90;99.90
23087;DHT22;11712;51.134;4.156;2023-04-08T00:42:12;8.90;99.90
23087;DHT22;11712;51.134;4.156;2023-04-08T00:44:38;8.90;99.90
23087;DHT22;11712;51.134;4.156;2023-04-08T00:47:04;8.90;99.90
23087;DHT22;11712;51.134;4.156;2023-04-08T00:49:29;8.80;99.90
23087;DHT22;11712;51.134;4.156;2023-04-08T00:51:55;8.80;99.90
23087;DHT22;11712;51.134;4.156;2023-04-08T00:54:21;8.80;99.90
23087;DHT22;11712;51.134;4.156;2023-04-08T00:56:46;8.90;99.90
23087;DHT22;11712;51.134;4.156;2023-04-08T00:59:12;9.00;99.90
23087;DHT22;11712;51.134;4.156;2023-04-08T01:02:42;9.30;99.90
23087;DHT22;11712;51.134;4.156;2023-04-08T01:09:31;9.30;99.90
23087;DHT22;11712;51.134;4.156;2023-04-08T01:11:57;9.30;99.90
23087;DHT22;11712;51.134;4.156;2023-04-08T01:14:24;9.20;99.90
23087;DHT22;11712;51.134;4.156;2023-04-08T01:16:52;9.30;99.90
23087;DHT22;11712;51.134;4.156;2023-04-08T01:19:23;9.40;99.90
23087;DHT22;11712;51.134;4.156;2023-04-08T01:21:50;9.60;99.90
23087;DHT22;11712;51.134;4.156;2023-04-08T01:24:19;9.40;99.90
23087;DHT22;11712;51.134;4.156;2023-04-08T01:26:47;9.20;99.90
23087;DHT22;11712;51.134;4.156;2023-04-08T01:29:14;9.10;99.90
23087;DHT22;11712;51.134;4.156;2023-04-08T01:31:40;9.20;99.90
23087;DHT22;11712;51.134;4.156;2023-04-08T01:34:07;9.20;99.90
23087;DHT22;11712;51.134;4.156;2023-04-08T01:36:33;9.20;99.90
23087;DHT22;11712;51.134;4.156;2023-04-08T01:39:00;9.20;99.90
23087;DHT22;11712;51.134;4.156;2023-04-08T01:41:27;9.10;99.90
23087;DHT22;11712;51.134;4.156;2023-04-08T01:43:53;9.10;99.90
23087;DHT22;11712;51.134;4.156;2023-04-08T01:46:19;9.00;99.90
23087;DHT22;11712;51.134;4.156;2023-04-08T01:48:45;9.00;99.90
23087;DHT22;11712;51.134;4.156;2023-04-08T01:51:12;9.00;99.90
23087;DHT22;11712;51.134;4.156;2023-04-08T01:53:39;8.90;99.90
23087;DHT22;11712;51.134;4.156;2023-04-08T01:56:05;9.00;99.90
23087;DHT22;11712;51.134;4.156;2023-04-08T01:58:35;8.90;99.90
23087;DHT22;11712;51.134;4.156;2023-04-08T02:01:01;8.90;99.90
23087;DHT22;11712;51.134;4.156;2023-04-08T02:03:28;8.90;99.90
23087;DHT22;11712;51.134;4.156;2023-04-08T02:05:55;8.90;99.90
23087;DHT22;11712;51.134;4.156;2023-04-08T02:08:20;8.90;99.90
23087;DHT22;11712;51.134;4.156;2023-04-08T02:10:46;9.00;99.90
23087;DHT22;11712;51.134;4.156;2023-04-08T02:13:11;9.00;99.90
23087;DHT22;11712;51.134;4.156;2023-04-08T02:15:37;9.00;99.90
23087;DHT22;11712;51.134;4.156;2023-04-08T02:18:11;9.10;99.90
23087;DHT22;11712;51.134;4.156;2023-04-08T02:20:38;9.30;99.90
23087;DHT22;11712;51.134;4.156;2023-04-08T02:23:08;9.30;99.90
23087;DHT22;11712;51.134;4.156;2023-04-08T02:25:36;9.20;99.90
23087;DHT22;11712;51.134;4.156;2023-04-08T02:28:06;9.20;99.90
23087;DHT22;11712;51.134;4.156;2023-04-08T02:30:34;9.20;99.90
23087;DHT22;11712;51.134;4.156;2023-04-08T02:33:04;9.30;99.90
23087;DHT22;11712;51.134;4.156;2023-04-08T02:35:30;9.40;99.90
23087;DHT22;11712;51.134;4.156;2023-04-08T02:37:56;9.70;99.90
23087;DHT22;11712;51.134;4.156;2023-04-08T02:40:22;9.70;99.90
23087;DHT22;11712;51.134;4.156;2023-04-08T02:42:47;9.60;99.90
23087;DHT22;11712;51.134;4.156;2023-04-08T02:45:13;9.70;99.90
23087;DHT22;11712;51.134;4.156;2023-04-08T02:47:39;9.60;99.90
23087;DHT22;11712;51.134;4.156;2023-04-08T02:50:04;9.80;99.90
23087;DHT22;11712;51.134;4.156;2023-04-08T02:52:30;10.00;99.90
23087;DHT22;11712;51.134;4.156;2023-04-08T02:54:55;10.10;99.90
23087;DHT22;11712;51.134;4.156;2023-04-08T02:57:21;10.20;99.90
23087;DHT22;11712;51.134;4.156;2023-04-08T02:59:46;10.40;99.90
23087;DHT22;11712;51.134;4.156;2023-04-08T03:02:12;10.20;99.90
23087;DHT22;11712;51.134;4.156;2023-04-08T03:04:37;10.10;99.90
23087;DHT22;11712;51.134;4.156;2023-04-08T03:07:03;9.80;99.90
23087;DHT22;11712;51.134;4.156;2023-04-08T03:09:28;9.70;99.90
23087;DHT22;11712;51.134;4.156;2023-04-08T03:11:54;9.70;99.90
23087;DHT22;11712;51.134;4.156;2023-04-08T03:14:20;9.70;99.90
23087;DHT22;11712;51.134;4.156;2023-04-08T03:16:46;9.80;99.90
23087;DHT22;11712;51.134;4.156;2023-04-08T03:19:12;9.60;99.90
23087;DHT22;11712;51.134;4.156;2023-04-08T03:21:37;9.50;99.90
23087;DHT22;11712;51.134;4.156;2023-04-08T03:24:03;9.80;99.90
23087;DHT22;11712;51.134;4.156;2023-04-08T03:26:28;10.00;99.90
23087;DHT22;11712;51.134;4.156;2023-04-08T03:28:54;10.00;99.90
23087;DHT22;11712;51.134;4.156;2023-04-08T03:31:19;10.00;99.90
23087;DHT22;11712;51.134;4.156;2023-04-08T03:33:45;9.90;99.90
23087;DHT22;11712;51.134;4.156;2023-04-08T03:36:11;9.50;99.90
23087;DHT22;11712;51.134;4.156;2023-04-08T03:38:37;9.40;99.90
23087;DHT22;11712;51.134;4.156;2023-04-08T03:41:02;9.30;99.90
23087;DHT22;11712;51.134;4.156;2023-04-08T03:43:29;9.20;99.90
23087;DHT22;11712;51.134;4.156;2023-04-08T03:45:55;9.30;99.90
23087;DHT22;11712;51.134;4.156;2023-04-08T03:48:21;9.40;99.90
23087;DHT22;11712;51.134;4.156;2023-04-08T03:50:47;9.60;99.90
23087;DHT22;11712;51.134;4.156;2023-04-08T03:53:12;9.70;99.90
23087;DHT22;11712;51.134;4.156;2023-04-08T03:55:38;9.70;99.90
23087;DHT22;11712;51.134;4.156;2023-04-08T03:58:04;9.70;99.90
23087;DHT22;11712;51.134;4.156;2023-04-08T04:00:30;9.70;99.90
23087;DHT22;11712;51.134;4.156;2023-04-08T04:02:55;9.70;99.90
23087;DHT22;11712;51.134;4.156;2023-04-08T04:05:21;9.80;99.90
23087;DHT22;11712;51.134;4.156;2023-04-08T04:07:46;9.80;99.90
23087;DHT22;11712;51.134;4.156;2023-04-08T04:10:12;9.50;99.90
23087;DHT22;11712;51.134;4.156;2023-04-08T04:12:37;9.30;99.90
23087;DHT22;11712;51.134;4.156;2023-04-08T04:15:03;9.20;99.90
23087;DHT22;11712;51.134;4.156;2023-04-08T04:17:29;9.10;99.90
23087;DHT22;11712;51.134;4.156;2023-04-08T04:19:54;9.10;99.90
23087;DHT22;11712;51.134;4.156;2023-04-08T04:22:20;9.20;99.90
23087;DHT22;11712;51.134;4.156;2023-04-08T04:24:46;9.30;99.90
23087;DHT22;11712;51.134;4.156;2023-04-08T04:27:13;9.50;99.90
23087;DHT22;11712;51.134;4.156;2023-04-08T04:29:38;9.50;99.90
23087;DHT22;11712;51.134;4.156;2023-04-08T04:32:04;9.50;99.90
23087;DHT22;11712;51.134;4.156;2023-04-08T04:34:31;9.50;99.90
23087;DHT22;11712;51.134;4.156;2023-04-08T04:36:56;9.60;99.90
23087;DHT22;11712;51.134;4.156;2023-04-08T04:39:22;9.70;99.90
23087;DHT22;11712;51.134;4.156;2023-04-08T04:41:47;9.50;99.90
23087;DHT22;11712;51.134;4.156;2023-04-08T04:44:13;9.70;99.90
23087;DHT22;11712;51.134;4.156;2023-04-08T04:46:39;9.90;99.90
23087;DHT22;11712;51.134;4.156;2023-04-08T04:49:04;9.80;99.90
23087;DHT22;11712;51.134;4.156;2023-04-08T04:51:30;9.50;99.90
23087;DHT22;11712;51.134;4.156;2023-04-08T04:53:57;9.50;99.90
23087;DHT22;11712;51.134;4.156;2023-04-08T04:56:23;9.70;99.90
23087;DHT22;11712;51.134;4.156;2023-04-08T04:58:49;9.90;99.90
23087;DHT22;11712;51.134;4.156;2023-04-08T05:01:15;10.00;99.90
23087;DHT22;11712;51.134;4.156;2023-04-08T05:03:40;10.20;99.90
23087;DHT22;11712;51.134;4.156;2023-04-08T05:06:06;10.10;99.90
23087;DHT22;11712;51.134;4.156;2023-04-08T05:08:31;9.80;99.90
23087;DHT22;11712;51.134;4.156;2023-04-08T05:10:57;9.60;99.90
23087;DHT22;11712;51.134;4.156;2023-04-08T05:13:26;9.40;99.90
23087;DHT22;11712;51.134;4.156;2023-04-08T05:15:52;9.30;99.90
23087;DHT22;11712;51.134;4.156;2023-04-08T05:18:18;9.30;99.90
23087;DHT22;11712;51.134;4.156;2023-04-08T05:20:44;9.40;99.90
23087;DHT22;11712;51.134;4.156;2023-04-08T05:23:10;9.70;99.90
23087;DHT22;11712;51.134;4.156;2023-04-08T05:25:35;9.60;99.90
23087;DHT22;11712;51.134;4.156;2023-04-08T05:28:01;9.40;99.90
23087;DHT22;11712;51.134;4.156;2023-04-08T05:30:26;9.40;99.90
23087;DHT22;11712;51.134;4.156;2023-04-08T05:32:52;9.40;99.90
23087;DHT22;11712;51.134;4.156;2023-04-08T05:35:18;9.50;99.90
23087;DHT22;11712;51.134;4.156;2023-04-08T05:37:43;9.40;99.90
23087;DHT22;11712;51.134;4.156;2023-04-08T05:40:09;9.50;99.90
23087;DHT22;11712;51.134;4.156;2023-04-08T05:42:34;9.40;99.90
23087;DHT22;11712;51.134;4.156;2023-04-08T05:45:00;9.30;99.90
23087;DHT22;11712;51.134;4.156;2023-04-08T05:47:26;9.30;99.90
23087;DHT22;11712;51.134;4.156;2023-04-08T05:49:51;9.40;99.90
23087;DHT22;11712;51.134;4.156;2023-04-08T05:52:17;9.40;99.90
23087;DHT22;11712;51.134;4.156;2023-04-08T05:54:42;9.20;99.90
23087;DHT22;11712;51.134;4.156;2023-04-08T05:57:08;9.30;99.90
23087;DHT22;11712;51.134;4.156;2023-04-08T05:59:34;9.20;99.90
23087;DHT22;11712;51.134;4.156;2023-04-08T06:02:00;9.20;99.90
23087;DHT22;11712;51.134;4.156;2023-04-08T06:04:25;9.20;99.90
23087;DHT22;11712;51.134;4.156;2023-04-08T06:06:51;9.10;99.90
23087;DHT22;11712;51.134;4.156;2023-04-08T06:09:16;9.10;99.90
23087;DHT22;11712;51.134;4.156;2023-04-08T06:11:42;9.00;99.90
23087;DHT22;11712;51.134;4.156;2023-04-08T06:14:07;9.00;99.90
23087;DHT22;11712;51.134;4.156;2023-04-08T06:16:33;9.10;99.90
23087;DHT22;11712;51.134;4.156;2023-04-08T06:18:58;9.30;99.90
23087;DHT22;11712;51.134;4.156;2023-04-08T06:21:24;9.30;99.90
23087;DHT22;11712;51.134;4.156;2023-04-08T06:23:50;9.20;99.90
23087;DHT22;11712;51.134;4.156;2023-04-08T06:26:16;9.10;99.90
23087;DHT22;11712;51.134;4.156;2023-04-08T06:28:42;9.00;99.90
23087;DHT22;11712;51.134;4.156;2023-04-08T06:31:07;9.00;99.90
23087;DHT22;11712;51.134;4.156;2023-04-08T06:33:33;9.00;99.90
23087;DHT22;11712;51.134;4.156;2023-04-08T06:36:02;9.10;99.90
23087;DHT22;11712;51.134;4.156;2023-04-08T06:38:28;9.20;99.90
23087;DHT22;11712;51.134;4.156;2023-04-08T06:40:54;9.20;99.90
23087;DHT22;11712;51.134;4.156;2023-04-08T06:43:20;9.20;99.90
23087;DHT22;11712;51.134;4.156;2023-04-08T06:45:46;9.10;99.90
23087;DHT22;11712;51.134;4.156;2023-04-08T06:48:12;9.20;99.90
23087;DHT22;11712;51.134;4.156;2023-04-08T06:50:37;9.20;99.90
23087;DHT22;11712;51.134;4.156;2023-04-08T06:53:03;9.30;99.90
23087;DHT22;11712;51.134;4.156;2023-04-08T06:55:28;9.40;99.90
23087;DHT22;11712;51.134;4.156;2023-04-08T06:57:54;9.60;99.90
23087;DHT22;11712;51.134;4.156;2023-04-08T07:00:19;9.60;99.90
23087;DHT22;11712;51.134;4.156;2023-04-08T07:02:45;9.90;99.90
23087;DHT22;11712;51.134;4.156;2023-04-08T07:05:10;10.10;99.90
23087;DHT22;11712;51.134;4.156;2023-04-08T07:07:36;9.90;99.90
23087;DHT22;11712;51.134;4.156;2023-04-08T07:10:02;9.70;99.90
23087;DHT22;11712;51.134;4.156;2023-04-08T07:12:27;9.80;99.90
23087;DHT22;11712;51.134;4.156;2023-04-08T07:14:53;10.10;99.90
23087;DHT22;11712;51.134;4.156;2023-04-08T07:17:18;10.40;99.90
23087;DHT22;11712;51.134;4.156;2023-04-08T07:19:44;10.50;99.90
23087;DHT22;11712;51.134;4.156;2023-04-08T07:22:09;10.90;99.90
23087;DHT22;11712;51.134;4.156;2023-04-08T07:24:35;10.80;99.90
23087;DHT22;11712;51.134;4.156;2023-04-08T07:27:01;10.70;99.90
23087;DHT22;11712;51.134;4.156;2023-04-08T07:29:27;10.90;99.90
23087;DHT22;11712;51.134;4.156;2023-04-08T07:31:53;10.90;99.90
23087;DHT22;11712;51.134;4.156;2023-04-08T07:34:18;10.90;99.90
23087;DHT22;11712;51.134;4.156;2023-04-08T07:36:44;11.10;99.90
23087;DHT22;11712;51.134;4.156;2023-04-08T07:39:09;11.20;99.90
23087;DHT22;11712;51.134;4.156;2023-04-08T07:41:35;11.30;99.90
23087;DHT22;11712;51.134;4.156;2023-04-08T07:44:01;11.20;99.90
23087;DHT22;11712;51.134;4.156;2023-04-08T07:46:26;11.40;99.90
23087;DHT22;11712;51.134;4.156;2023-04-08T07:48:52;11.50;99.90
23087;DHT22;11712;51.134;4.156;2023-04-08T07:51:17;11.70;99.90
23087;DHT22;11712;51.134;4.156;2023-04-08T07:53:43;11.80;99.90
23087;DHT22;11712;51.134;4.156;2023-04-08T07:56:09;11.70;99.90
23087;DHT22;11712;51.134;4.156;2023-04-08T07:58:35;11.60;99.90
23087;DHT22;11712;51.134;4.156;2023-04-08T08:01:01;11.50;99.90
23087;DHT22;11712;51.134;4.156;2023-04-08T08:03:26;11.60;99.90
23087;DHT22;11712;51.134;4.156;2023-04-08T08:05:52;11.60;99.90
23087;DHT22;11712;51.134;4.156;2023-04-08T08:08:17;11.60;99.90
23087;DHT22;11712;51.134;4.156;2023-04-08T08:10:43;11.60;99.90
23087;DHT22;11712;51.134;4.156;2023-04-08T08:13:08;11.70;99.90
23087;DHT22;11712;51.134;4.156;2023-04-08T08:15:36;11.70;99.90
23087;DHT22;11712;51.134;4.156;2023-04-08T08:18:02;11.80;99.90
23087;DHT22;11712;51.134;4.156;2023-04-08T08:20:28;11.80;99.90
23087;DHT22;11712;51.134;4.156;2023-04-08T08:22:53;11.80;99.90
23087;DHT22;11712;51.134;4.156;2023-04-08T08:25:19;11.90;99.90
23087;DHT22;11712;51.134;4.156;2023-04-08T08:27:44;12.10;99.90
23087;DHT22;11712;51.134;4.156;2023-04-08T08:30:10;12.10;99.90
23087;DHT22;11712;51.134;4.156;2023-04-08T08:32:35;12.10;99.90
23087;DHT22;11712;51.134;4.156;2023-04-08T08:35:01;12.00;99.90
23087;DHT22;11712;51.134;4.156;2023-04-08T08:37:27;11.90;99.90
23087;DHT22;11712;51.134;4.156;2023-04-08T08:39:52;11.90;99.90
23087;DHT22;11712;51.134;4.156;2023-04-08T08:42:21;11.70;99.90
23087;DHT22;11712;51.134;4.156;2023-04-08T08:44:47;11.70;99.90
23087;DHT22;11712;51.134;4.156;2023-04-08T08:47:13;11.50;99.90
23087;DHT22;11712;51.134;4.156;2023-04-08T08:49:38;11.70;99.90
23087;DHT22;11712;51.134;4.156;2023-04-08T08:52:04;11.90;99.90
23087;DHT22;11712;51.134;4.156;2023-04-08T08:54:31;12.00;99.90
23087;DHT22;11712;51.134;4.156;2023-04-08T08:56:56;12.20;99.90
23087;DHT22;11712;51.134;4.156;2023-04-08T08:59:22;12.20;99.90
23087;DHT22;11712;51.134;4.156;2023-04-08T09:01:47;12.10;99.90
23087;DHT22;11712;51.134;4.156;2023-04-08T09:04:17;12.10;99.90
23087;DHT22;11712;51.134;4.156;2023-04-08T09:06:44;12.10;99.90
23087;DHT22;11712;51.134;4.156;2023-04-08T09:09:11;12.20;99.90
23087;DHT22;11712;51.134;4.156;2023-04-08T09:11:40;12.10;99.90
23087;DHT22;11712;51.134;4.156;2023-04-08T09:14:22;12.10;99.90
23087;DHT22;11712;51.134;4.156;2023-04-08T09:16:48;12.10;99.90
23087;DHT22;11712;51.134;4.156;2023-04-08T09:19:14;11.90;99.90
23087;DHT22;11712;51.134;4.156;2023-04-08T09:21:40;11.90;99.90
23087;DHT22;11712;51.134;4.156;2023-04-08T09:24:06;11.90;99.90
23087;DHT22;11712;51.134;4.156;2023-04-08T09:26:32;11.80;99.90
23087;DHT22;11712;51.134;4.156;2023-04-08T09:31:41;11.70;99.90
23087;DHT22;11712;51.134;4.156;2023-04-08T09:36:36;11.70;99.90
23087;DHT22;11712;51.134;4.156;2023-04-08T09:39:02;11.60;99.90
23087;DHT22;11712;51.134;4.156;2023-04-08T09:41:27;11.60;99.90
23087;DHT22;11712;51.134;4.156;2023-04-08T09:43:54;11.50;99.90
23087;DHT22;11712;51.134;4.156;2023-04-08T09:46:38;11.40;99.90
23087;DHT22;11712;51.134;4.156;2023-04-08T09:49:09;11.60;99.90
23087;DHT22;11712;51.134;4.156;2023-04-08T09:51:39;11.70;99.90
23087;DHT22;11712;51.134;4.156;2023-04-08T09:54:05;11.50;99.90
23087;DHT22;11712;51.134;4.156;2023-04-08T09:56:42;11.60;99.90
23087;DHT22;11712;51.134;4.156;2023-04-08T09:59:11;11.50;99.90
23087;DHT22;11712;51.134;4.156;2023-04-08T10:01:38;11.70;99.90
23087;DHT22;11712;51.134;4.156;2023-04-08T10:04:06;11.80;99.90
23087;DHT22;11712;51.134;4.156;2023-04-08T10:06:32;11.90;99.90
23087;DHT22;11712;51.134;4.156;2023-04-08T10:08:58;12.00;99.90
23087;DHT22;11712;51.134;4.156;2023-04-08T10:11:26;12.20;99.90
23087;DHT22;11712;51.134;4.156;2023-04-08T10:13:52;12.40;99.90
23087;DHT22;11712;51.134;4.156;2023-04-08T10:16:18;12.60;99.90
23087;DHT22;11712;51.134;4.156;2023-04-08T10:18:46;12.80;99.90
23087;DHT22;11712;51.134;4.156;2023-04-08T10:21:54;12.30;99.90
23087;DHT22;11712;51.134;4.156;2023-04-08T10:24:01;12.50;99.90
23087;DHT22;11712;51.134;4.156;2023-04-08T10:31:43;13.10;99.90
23087;DHT22;11712;51.134;4.156;2023-04-08T10:36:40;13.20;99.90
23087;DHT22;11712;51.134;4.156;2023-04-08T10:39:05;13.60;99.90
23087;DHT22;11712;51.134;4.156;2023-04-08T10:41:31;14.00;99.90
23087;DHT22;11712;51.134;4.156;2023-04-08T10:43:57;14.20;99.90
23087;DHT22;11712;51.134;4.156;2023-04-08T10:46:22;14.50;99.90
23087;DHT22;11712;51.134;4.156;2023-04-08T10:48:59;14.20;99.90
23087;DHT22;11712;51.134;4.156;2023-04-08T10:51:29;14.40;99.90
23087;DHT22;11712;51.134;4.156;2023-04-08T10:53:56;14.10;99.90
23087;DHT22;11712;51.134;4.156;2023-04-08T10:56:29;13.50;99.90
23087;DHT22;11712;51.134;4.156;2023-04-08T10:58:55;13.20;99.90
23087;DHT22;11712;51.134;4.156;2023-04-08T11:01:21;13.10;99.90
23087;DHT22;11712;51.134;4.156;2023-04-08T11:03:47;13.20;99.90
23087;DHT22;11712;51.134;4.156;2023-04-08T11:06:12;13.30;99.90
23087;DHT22;11712;51.134;4.156;2023-04-08T11:08:38;13.80;99.90
23087;DHT22;11712;51.134;4.156;2023-04-08T11:11:04;14.00;99.90
23087;DHT22;11712;51.134;4.156;2023-04-08T11:13:33;14.00;99.90
23087;DHT22;11712;51.134;4.156;2023-04-08T11:16:00;13.70;99.90
23087;DHT22;11712;51.134;4.156;2023-04-08T11:18:26;13.70;99.90
23087;DHT22;11712;51.134;4.156;2023-04-08T11:20:53;13.70;99.90
23087;DHT22;11712;51.134;4.156;2023-04-08T11:23:19;13.70;99.90
23087;DHT22;11712;51.134;4.156;2023-04-08T11:25:45;13.20;99.90
23087;DHT22;11712;51.134;4.156;2023-04-08T11:28:11;13.30;99.90
23087;DHT22;11712;51.134;4.156;2023-04-08T11:30:38;13.30;99.90
23087;DHT22;11712;51.134;4.156;2023-04-08T11:33:05;13.50;99.90
23087;DHT22;11712;51.134;4.156;2023-04-08T11:35:31;13.70;99.90
23087;DHT22;11712;51.134;4.156;2023-04-08T11:37:56;13.20;99.90
23087;DHT22;11712;51.134;4.156;2023-04-08T11:40:22;13.20;99.90
23087;DHT22;11712;51.134;4.156;2023-04-08T11:42:49;13.60;99.90
23087;DHT22;11712;51.134;4.156;2023-04-08T11:45:15;13.30;99.90
23087;DHT22;11712;51.134;4.156;2023-04-08T11:47:41;13.70;99.90
23087;DHT22;11712;51.134;4.156;2023-04-08T11:50:07;14.10;99.90
23087;DHT22;11712;51.134;4.156;2023-04-08T11:52:42;14.20;99.90
23087;DHT22;11712;51.134;4.156;2023-04-08T11:55:09;14.30;99.90
23087;DHT22;11712;51.134;4.156;2023-04-08T11:57:35;14.40;99.90
23087;DHT22;11712;51.134;4.156;2023-04-08T12:00:00;14.50;99.90
23087;DHT22;11712;51.134;4.156;2023-04-08T12:02:26;14.50;99.90
23087;DHT22;11712;51.134;4.156;2023-04-08T12:04:51;14.40;99.90
23087;DHT22;11712;51.134;4.156;2023-04-08T12:07:17;14.40;99.90
23087;DHT22;11712;51.134;4.156;2023-04-08T12:09:43;14.80;99.90
23087;DHT22;11712;51.134;4.156;2023-04-08T12:12:08;14.50;99.90
23087;DHT22;11712;51.134;4.156;2023-04-08T12:14:47;14.70;99.90
23087;DHT22;11712;51.134;4.156;2023-04-08T12:17:12;14.60;99.90
23087;DHT22;11712;51.134;4.156;2023-04-08T12:19:38;14.20;99.90
23087;DHT22;11712;51.134;4.156;2023-04-08T12:22:03;13.80;99.90
23087;DHT22;11712;51.134;4.156;2023-04-08T12:24:29;14.00;99.90
23087;DHT22;11712;51.134;4.156;2023-04-08T12:26:55;14.80;99.90
23087;DHT22;11712;51.134;4.156;2023-04-08T12:29:23;14.90;99.90
23087;DHT22;11712;51.134;4.156;2023-04-08T12:31:48;14.60;99.90
23087;DHT22;11712;51.134;4.156;2023-04-08T12:34:14;14.60;99.90
23087;DHT22;11712;51.134;4.156;2023-04-08T12:36:39;14.50;99.90
23087;DHT22;11712;51.134;4.156;2023-04-08T12:39:06;14.50;99.90
23087;DHT22;11712;51.134;4.156;2023-04-08T12:41:31;14.20;99.90
23087;DHT22;11712;51.134;4.156;2023-04-08T12:43:57;14.80;99.90
23087;DHT22;11712;51.134;4.156;2023-04-08T12:46:23;15.10;99.90
23087;DHT22;11712;51.134;4.156;2023-04-08T12:48:48;15.10;99.90
23087;DHT22;11712;51.134;4.156;2023-04-08T12:51:14;15.50;99.90
23087;DHT22;11712;51.134;4.156;2023-04-08T12:53:39;15.70;99.90
23087;DHT22;11712;51.134;4.156;2023-04-08T12:56:05;15.80;99.90
23087;DHT22;11712;51.134;4.156;2023-04-08T12:58:31;16.00;99.90
23087;DHT22;11712;51.134;4.156;2023-04-08T13:00:56;15.80;99.90
23087;DHT22;11712;51.134;4.156;2023-04-08T13:03:22;15.80;99.90
23087;DHT22;11712;51.134;4.156;2023-04-08T13:05:47;15.60;99.90
23087;DHT22;11712;51.134;4.156;2023-04-08T13:08:13;15.70;99.90
23087;DHT22;11712;51.134;4.156;2023-04-08T13:10:40;15.70;99.90
23087;DHT22;11712;51.134;4.156;2023-04-08T13:13:05;16.20;99.90
23087;DHT22;11712;51.134;4.156;2023-04-08T13:15:31;16.60;99.90
23087;DHT22;11712;51.134;4.156;2023-04-08T13:17:56;16.80;99.90
23087;DHT22;11712;51.134;4.156;2023-04-08T13:20:22;16.80;99.90
23087;DHT22;11712;51.134;4.156;2023-04-08T13:22:50;16.70;99.90
23087;DHT22;11712;51.134;4.156;2023-04-08T13:25:16;16.50;99.90
23087;DHT22;11712;51.134;4.156;2023-04-08T13:27:41;16.40;99.90
23087;DHT22;11712;51.134;4.156;2023-04-08T13:30:07;16.20;99.90
23087;DHT22;11712;51.134;4.156;2023-04-08T13:32:33;16.30;99.90
23087;DHT22;11712;51.134;4.156;2023-04-08T13:34:58;16.40;99.90
23087;DHT22;11712;51.134;4.156;2023-04-08T13:37:24;16.40;99.90
23087;DHT22;11712;51.134;4.156;2023-04-08T13:39:49;16.10;99.90
23087;DHT22;11712;51.134;4.156;2023-04-08T13:42:15;16.00;99.90
23087;DHT22;11712;51.134;4.156;2023-04-08T13:44:40;15.90;99.90
23087;DHT22;11712;51.134;4.156;2023-04-08T13:47:06;15.90;99.90
23087;DHT22;11712;51.134;4.156;2023-04-08T13:49:31;15.60;99.90
23087;DHT22;11712;51.134;4.156;2023-04-08T13:51:57;15.60;99.90
23087;DHT22;11712;51.134;4.156;2023-04-08T13:54:22;15.30;99.90
23087;DHT22;11712;51.134;4.156;2023-04-08T13:56:48;15.20;99.90
23087;DHT22;11712;51.134;4.156;2023-04-08T13:59:13;14.80;99.90
23087;DHT22;11712;51.134;4.156;2023-04-08T14:01:39;14.90;99.90
23087;DHT22;11712;51.134;4.156;2023-04-08T14:04:05;15.20;99.90
23087;DHT22;11712;51.134;4.156;2023-04-08T14:06:30;15.80;99.90
23087;DHT22;11712;51.134;4.156;2023-04-08T14:08:56;16.00;99.90
23087;DHT22;11712;51.134;4.156;2023-04-08T14:11:22;16.40;99.90
23087;DHT22;11712;51.134;4.156;2023-04-08T14:13:47;16.40;99.90
23087;DHT22;11712;51.134;4.156;2023-04-08T14:16:13;16.40;99.90
23087;DHT22;11712;51.134;4.156;2023-04-08T14:18:39;16.60;99.90
23087;DHT22;11712;51.134;4.156;2023-04-08T14:21:05;16.80;99.90
23087;DHT22;11712;51.134;4.156;2023-04-08T14:23:31;17.20;99.90
23087;DHT22;11712;51.134;4.156;2023-04-08T14:25:57;17.10;99.90
23087;DHT22;11712;51.134;4.156;2023-04-08T14:28:22;17.30;99.90
23087;DHT22;11712;51.134;4.156;2023-04-08T14:30:48;17.40;99.90
23087;DHT22;11712;51.134;4.156;2023-04-08T14:33:13;17.50;99.90
23087;DHT22;11712;51.134;4.156;2023-04-08T14:35:39;17.70;99.90
23087;DHT22;11712;51.134;4.156;2023-04-08T14:38:04;18.10;99.90
23087;DHT22;11712;51.134;4.156;2023-04-08T14:40:30;18.00;99.90
23087;DHT22;11712;51.134;4.156;2023-04-08T14:42:55;18.50;99.90
23087;DHT22;11712;51.134;4.156;2023-04-08T14:45:21;18.30;99.90
23087;DHT22;11712;51.134;4.156;2023-04-08T14:47:46;17.00;99.90
23087;DHT22;11712;51.134;4.156;2023-04-08T14:50:12;16.40;99.90
23087;DHT22;11712;51.134;4.156;2023-04-08T14:52:37;15.90;99.90
23087;DHT22;11712;51.134;4.156;2023-04-08T14:55:03;16.00;99.90
23087;DHT22;11712;51.134;4.156;2023-04-08T14:57:29;15.90;99.90
23087;DHT22;11712;51.134;4.156;2023-04-08T14:59:54;16.40;99.90
23087;DHT22;11712;51.134;4.156;2023-04-08T15:02:20;17.60;99.90
23087;DHT22;11712;51.134;4.156;2023-04-08T15:04:45;18.90;99.90
23087;DHT22;11712;51.134;4.156;2023-04-08T15:07:11;19.40;99.90
23087;DHT22;11712;51.134;4.156;2023-04-08T15:09:37;19.90;99.90
23087;DHT22;11712;51.134;4.156;2023-04-08T15:12:02;20.60;99.90
23087;DHT22;11712;51.134;4.156;2023-04-08T15:14:28;20.50;99.90
23087;DHT22;11712;51.134;4.156;2023-04-08T15:16:53;19.70;99.90
23087;DHT22;11712;51.134;4.156;2023-04-08T15:19:19;19.00;99.90
23087;DHT22;11712;51.134;4.156;2023-04-08T15:21:44;18.60;99.90
23087;DHT22;11712;51.134;4.156;2023-04-08T15:24:10;18.30;99.90
23087;DHT22;11712;51.134;4.156;2023-04-08T15:26:35;17.80;99.90
23087;DHT22;11712;51.134;4.156;2023-04-08T15:29:01;17.60;99.90
23087;DHT22;11712;51.134;4.156;2023-04-08T15:31:28;17.70;99.90
23087;DHT22;11712;51.134;4.156;2023-04-08T15:33:54;17.70;99.90
23087;DHT22;11712;51.134;4.156;2023-04-08T15:36:20;17.40;99.90
23087;DHT22;11712;51.134;4.156;2023-04-08T15:38:46;17.20;99.90
23087;DHT22;11712;51.134;4.156;2023-04-08T15:41:18;17.10;99.90
23087;DHT22;11712;51.134;4.156;2023-04-08T15:43:44;17.10;99.90
23087;DHT22;11712;51.134;4.156;2023-04-08T15:46:10;17.00;99.90
23087;DHT22;11712;51.134;4.156;2023-04-08T15:48:36;17.00;99.90